sensor_id;sensor_type;location;lat;lon;timestamp;P1;durP1;ratioP1;P2;durP2;ratioP2
24443;SDS011;13346;50.984;5.822;2024-01-07T00:00:50;15.67;;;10.17;;
24443;SDS011;13346;50.984;5.822;2024-01-07T00:03:18;17.13;;;13.83;;
24443;SDS011;13346;50.984;5.822;2024-01-07T00:05:45;26.63;;;15.23;;
24443;SDS011;13346;50.984;5.822;2024-01-07T00:08:13;9.03;;;6.83;;
24443;SDS011;13346;50.984;5.822;2024-01-07T00:10:40;21.83;;;12.17;;
24443;SDS011;13346;50.984;5.822;2024-01-07T00:13:07;24.90;;;18.43;;
24443;SDS011;13346;50.984;5.822;2024-01-07T00:15:34;21.37;;;15.77;;
24443;SDS011;13346;50.984;5.822;2024-01-07T00:18:01;20.80;;;15.40;;
24443;SDS011;13346;50.984;5.822;2024-01-07T00:20:30;20.83;;;15.53;;
24443;SDS011;13346;50.984;5.822;2024-01-07T00:22:57;20.20;;;14.33;;
24443;SDS011;13346;50.984;5.822;2024-01-07T00:25:24;20.13;;;15.03;;
24443;SDS011;13346;50.984;5.822;2024-01-07T00:27:51;20.43;;;14.37;;
24443;SDS011;13346;50.984;5.822;2024-01-07T00:30:20;21.30;;;15.77;;
24443;SDS011;13346;50.984;5.822;2024-01-07T00:32:48;19.03;;;11.10;;
24443;SDS011;13346;50.984;5.822;2024-01-07T00:35:16;18.30;;;13.67;;
24443;SDS011;13346;50.984;5.822;2024-01-07T00:37:44;19.47;;;14.17;;
24443;SDS011;13346;50.984;5.822;2024-01-07T00:40:12;19.13;;;14.13;;
24443;SDS011;13346;50.984;5.822;2024-01-07T00:42:39;18.60;;;13.13;;
24443;SDS011;13346;50.984;5.822;2024-01-07T00:45:06;21.97;;;17.23;;
24443;SDS011;13346;50.984;5.822;2024-01-07T00:47:35;22.17;;;16.70;;
24443;SDS011;13346;50.984;5.822;2024-01-07T00:50:02;21.50;;;14.87;;
24443;SDS011;13346;50.984;5.822;2024-01-07T00:52:30;21.97;;;16.87;;
24443;SDS011;13346;50.984;5.822;2024-01-07T00:54:58;19.43;;;14.10;;
24443;SDS011;13346;50.984;5.822;2024-01-07T00:57:27;22.70;;;17.73;;
24443;SDS011;13346;50.984;5.822;2024-01-07T00:59:54;20.30;;;16.40;;
24443;SDS011;13346;50.984;5.822;2024-01-07T01:02:21;20.93;;;15.47;;
24443;SDS011;13346;50.984;5.822;2024-01-07T01:04:48;21.83;;;16.07;;
24443;SDS011;13346;50.984;5.822;2024-01-07T01:07:16;21.37;;;12.80;;
24443;SDS011;13346;50.984;5.822;2024-01-07T01:09:43;15.27;;;11.97;;
24443;SDS011;13346;50.984;5.822;2024-01-07T01:12:11;22.20;;;14.30;;
24443;SDS011;13346;50.984;5.822;2024-01-07T01:14:38;23.43;;;17.03;;
24443;SDS011;13346;50.984;5.822;2024-01-07T01:17:05;12.20;;;9.93;;
24443;SDS011;13346;50.984;5.822;2024-01-07T01:19:32;23.63;;;15.70;;
24443;SDS011;13346;50.984;5.822;2024-01-07T01:21:59;21.97;;;16.17;;
24443;SDS011;13346;50.984;5.822;2024-01-07T01:24:26;19.23;;;15.23;;
24443;SDS011;13346;50.984;5.822;2024-01-07T01:26:54;22.33;;;17.13;;
24443;SDS011;13346;50.984;5.822;2024-01-07T01:29:22;13.63;;;10.83;;
24443;SDS011;13346;50.984;5.822;2024-01-07T01:31:49;15.00;;;12.43;;
24443;SDS011;13346;50.984;5.822;2024-01-07T01:34:16;13.63;;;10.67;;
24443;SDS011;13346;50.984;5.822;2024-01-07T01:36:43;16.17;;;13.07;;
24443;SDS011;13346;50.984;5.822;2024-01-07T01:39:11;17.53;;;12.63;;
24443;SDS011;13346;50.984;5.822;2024-01-07T01:41:38;14.73;;;9.73;;
24443;SDS011;13346;50.984;5.822;2024-01-07T01:44:06;24.47;;;17.00;;
24443;SDS011;13346;50.984;5.822;2024-01-07T01:46:34;17.13;;;12.57;;
24443;SDS011;13346;50.984;5.822;2024-01-07T01:49:01;18.77;;;14.13;;
24443;SDS011;13346;50.984;5.822;2024-01-07T01:51:29;7.93;;;7.27;;
24443;SDS011;13346;50.984;5.822;2024-01-07T01:53:56;10.47;;;7.73;;
24443;SDS011;13346;50.984;5.822;2024-01-07T01:56:25;20.10;;;15.00;;
24443;SDS011;13346;50.984;5.822;2024-01-07T01:58:54;8.77;;;7.83;;
24443;SDS011;13346;50.984;5.822;2024-01-07T02:01:22;16.23;;;10.67;;
24443;SDS011;13346;50.984;5.822;2024-01-07T02:03:51;17.30;;;13.73;;
24443;SDS011;13346;50.984;5.822;2024-01-07T02:06:19;19.50;;;13.10;;
24443;SDS011;13346;50.984;5.822;2024-01-07T02:08:47;15.47;;;11.20;;
24443;SDS011;13346;50.984;5.822;2024-01-07T02:11:16;11.23;;;8.90;;
24443;SDS011;13346;50.984;5.822;2024-01-07T02:13:43;21.90;;;15.97;;
24443;SDS011;13346;50.984;5.822;2024-01-07T02:16:11;12.30;;;9.87;;
24443;SDS011;13346;50.984;5.822;2024-01-07T02:18:38;18.33;;;13.80;;
24443;SDS011;13346;50.984;5.822;2024-01-07T02:21:10;10.83;;;8.00;;
24443;SDS011;13346;50.984;5.822;2024-01-07T02:23:39;17.93;;;12.40;;
24443;SDS011;13346;50.984;5.822;2024-01-07T02:26:07;21.33;;;14.57;;
24443;SDS011;13346;50.984;5.822;2024-01-07T02:28:35;23.23;;;12.00;;
24443;SDS011;13346;50.984;5.822;2024-01-07T02:31:02;19.60;;;13.90;;
24443;SDS011;13346;50.984;5.822;2024-01-07T02:33:29;17.83;;;12.60;;
24443;SDS011;13346;50.984;5.822;2024-01-07T02:35:56;27.77;;;17.27;;
24443;SDS011;13346;50.984;5.822;2024-01-07T02:38:23;16.67;;;10.63;;
24443;SDS011;13346;50.984;5.822;2024-01-07T02:40:51;21.57;;;14.10;;
24443;SDS011;13346;50.984;5.822;2024-01-07T02:43:19;27.87;;;19.10;;
24443;SDS011;13346;50.984;5.822;2024-01-07T02:45:46;20.63;;;14.83;;
24443;SDS011;13346;50.984;5.822;2024-01-07T02:48:13;30.27;;;19.27;;
24443;SDS011;13346;50.984;5.822;2024-01-07T02:50:40;15.90;;;10.10;;
24443;SDS011;13346;50.984;5.822;2024-01-07T02:53:07;24.50;;;16.43;;
24443;SDS011;13346;50.984;5.822;2024-01-07T02:55:36;16.17;;;11.47;;
24443;SDS011;13346;50.984;5.822;2024-01-07T02:58:04;29.60;;;17.97;;
24443;SDS011;13346;50.984;5.822;2024-01-07T03:00:32;29.73;;;18.77;;
24443;SDS011;13346;50.984;5.822;2024-01-07T03:02:59;25.30;;;17.70;;
24443;SDS011;13346;50.984;5.822;2024-01-07T03:05:26;6.63;;;6.10;;
24443;SDS011;13346;50.984;5.822;2024-01-07T03:07:57;10.70;;;9.03;;
24443;SDS011;13346;50.984;5.822;2024-01-07T03:10:25;26.20;;;13.30;;
24443;SDS011;13346;50.984;5.822;2024-01-07T03:12:53;17.43;;;11.63;;
24443;SDS011;13346;50.984;5.822;2024-01-07T03:15:20;18.00;;;11.97;;
24443;SDS011;13346;50.984;5.822;2024-01-07T03:17:49;16.43;;;9.30;;
24443;SDS011;13346;50.984;5.822;2024-01-07T03:20:16;17.83;;;13.00;;
24443;SDS011;13346;50.984;5.822;2024-01-07T03:22:43;21.27;;;14.43;;
24443;SDS011;13346;50.984;5.822;2024-01-07T03:25:10;15.13;;;9.70;;
24443;SDS011;13346;50.984;5.822;2024-01-07T03:27:37;19.60;;;14.20;;
24443;SDS011;13346;50.984;5.822;2024-01-07T03:30:05;18.80;;;13.00;;
24443;SDS011;13346;50.984;5.822;2024-01-07T03:32:33;5.10;;;4.57;;
24443;SDS011;13346;50.984;5.822;2024-01-07T03:35:02;15.20;;;9.90;;
24443;SDS011;13346;50.984;5.822;2024-01-07T03:37:29;9.27;;;6.93;;
24443;SDS011;13346;50.984;5.822;2024-01-07T03:39:56;14.70;;;11.30;;
24443;SDS011;13346;50.984;5.822;2024-01-07T03:42:24;5.80;;;5.30;;
24443;SDS011;13346;50.984;5.822;2024-01-07T03:44:51;12.03;;;9.37;;
24443;SDS011;13346;50.984;5.822;2024-01-07T03:47:18;16.97;;;12.17;;
24443;SDS011;13346;50.984;5.822;2024-01-07T03:49:45;19.60;;;13.33;;
24443;SDS011;13346;50.984;5.822;2024-01-07T03:52:13;20.13;;;12.90;;
24443;SDS011;13346;50.984;5.822;2024-01-07T03:54:41;13.13;;;9.10;;
24443;SDS011;13346;50.984;5.822;2024-01-07T03:57:08;9.27;;;4.90;;
24443;SDS011;13346;50.984;5.822;2024-01-07T03:59:35;14.13;;;11.40;;
24443;SDS011;13346;50.984;5.822;2024-01-07T04:02:02;4.60;;;4.17;;
24443;SDS011;13346;50.984;5.822;2024-01-07T04:04:29;16.63;;;12.43;;
24443;SDS011;13346;50.984;5.822;2024-01-07T04:06:57;15.63;;;12.07;;
24443;SDS011;13346;50.984;5.822;2024-01-07T04:09:25;13.80;;;11.03;;
24443;SDS011;13346;50.984;5.822;2024-01-07T04:11:52;7.87;;;7.00;;
24443;SDS011;13346;50.984;5.822;2024-01-07T04:14:19;11.73;;;8.53;;
24443;SDS011;13346;50.984;5.822;2024-01-07T04:16:47;6.23;;;4.30;;
24443;SDS011;13346;50.984;5.822;2024-01-07T04:19:14;16.23;;;11.83;;
24443;SDS011;13346;50.984;5.822;2024-01-07T04:21:45;12.67;;;8.50;;
24443;SDS011;13346;50.984;5.822;2024-01-07T04:24:13;8.63;;;6.03;;
24443;SDS011;13346;50.984;5.822;2024-01-07T04:26:41;7.27;;;6.00;;
24443;SDS011;13346;50.984;5.822;2024-01-07T04:29:08;8.07;;;5.37;;
24443;SDS011;13346;50.984;5.822;2024-01-07T04:31:36;10.17;;;6.83;;
24443;SDS011;13346;50.984;5.822;2024-01-07T04:34:03;12.93;;;8.07;;
24443;SDS011;13346;50.984;5.822;2024-01-07T04:36:30;15.87;;;10.30;;
24443;SDS011;13346;50.984;5.822;2024-01-07T04:38:57;15.10;;;11.67;;
24443;SDS011;13346;50.984;5.822;2024-01-07T04:41:24;17.57;;;12.37;;
24443;SDS011;13346;50.984;5.822;2024-01-07T04:43:53;13.10;;;8.80;;
24443;SDS011;13346;50.984;5.822;2024-01-07T04:46:20;15.67;;;12.07;;
24443;SDS011;13346;50.984;5.822;2024-01-07T04:48:48;5.47;;;4.77;;
24443;SDS011;13346;50.984;5.822;2024-01-07T04:51:15;14.30;;;10.80;;
24443;SDS011;13346;50.984;5.822;2024-01-07T04:53:42;13.27;;;9.70;;
24443;SDS011;13346;50.984;5.822;2024-01-07T04:56:09;12.43;;;9.37;;
24443;SDS011;13346;50.984;5.822;2024-01-07T04:58:37;13.93;;;10.47;;
24443;SDS011;13346;50.984;5.822;2024-01-07T05:01:05;17.67;;;12.00;;
24443;SDS011;13346;50.984;5.822;2024-01-07T05:03:32;5.30;;;4.80;;
24443;SDS011;13346;50.984;5.822;2024-01-07T05:06:00;6.33;;;5.70;;
24443;SDS011;13346;50.984;5.822;2024-01-07T05:08:28;21.10;;;9.30;;
24443;SDS011;13346;50.984;5.822;2024-01-07T05:10:55;14.60;;;11.97;;
24443;SDS011;13346;50.984;5.822;2024-01-07T05:13:23;13.93;;;11.33;;
24443;SDS011;13346;50.984;5.822;2024-01-07T05:15:50;8.50;;;7.70;;
24443;SDS011;13346;50.984;5.822;2024-01-07T05:18:21;11.77;;;7.33;;
24443;SDS011;13346;50.984;5.822;2024-01-07T05:20:48;14.10;;;8.07;;
24443;SDS011;13346;50.984;5.822;2024-01-07T05:23:16;5.60;;;5.10;;
24443;SDS011;13346;50.984;5.822;2024-01-07T05:25:43;17.73;;;13.93;;
24443;SDS011;13346;50.984;5.822;2024-01-07T05:28:11;5.60;;;5.07;;
24443;SDS011;13346;50.984;5.822;2024-01-07T05:30:38;8.83;;;7.67;;
24443;SDS011;13346;50.984;5.822;2024-01-07T05:33:06;7.00;;;5.50;;
24443;SDS011;13346;50.984;5.822;2024-01-07T05:35:35;8.57;;;7.03;;
24443;SDS011;13346;50.984;5.822;2024-01-07T05:38:02;12.93;;;10.57;;
24443;SDS011;13346;50.984;5.822;2024-01-07T05:40:29;9.00;;;7.97;;
24443;SDS011;13346;50.984;5.822;2024-01-07T05:42:56;9.13;;;7.07;;
24443;SDS011;13346;50.984;5.822;2024-01-07T05:45:23;8.70;;;6.47;;
24443;SDS011;13346;50.984;5.822;2024-01-07T05:47:51;11.97;;;9.53;;
24443;SDS011;13346;50.984;5.822;2024-01-07T05:50:18;13.40;;;9.30;;
24443;SDS011;13346;50.984;5.822;2024-01-07T05:52:47;10.77;;;7.77;;
24443;SDS011;13346;50.984;5.822;2024-01-07T05:55:14;8.43;;;7.53;;
24443;SDS011;13346;50.984;5.822;2024-01-07T05:57:42;16.70;;;8.90;;
24443;SDS011;13346;50.984;5.822;2024-01-07T06:00:10;15.43;;;13.13;;
24443;SDS011;13346;50.984;5.822;2024-01-07T06:02:38;21.33;;;15.23;;
24443;SDS011;13346;50.984;5.822;2024-01-07T06:05:06;12.97;;;9.50;;
24443;SDS011;13346;50.984;5.822;2024-01-07T06:07:33;8.40;;;6.17;;
24443;SDS011;13346;50.984;5.822;2024-01-07T06:10:02;13.67;;;11.23;;
24443;SDS011;13346;50.984;5.822;2024-01-07T06:12:31;21.33;;;12.80;;
24443;SDS011;13346;50.984;5.822;2024-01-07T06:14:58;10.27;;;8.10;;
24443;SDS011;13346;50.984;5.822;2024-01-07T06:17:25;13.60;;;10.17;;
24443;SDS011;13346;50.984;5.822;2024-01-07T06:19:52;8.07;;;6.33;;
24443;SDS011;13346;50.984;5.822;2024-01-07T06:22:20;8.17;;;7.37;;
24443;SDS011;13346;50.984;5.822;2024-01-07T06:24:47;6.67;;;6.00;;
24443;SDS011;13346;50.984;5.822;2024-01-07T06:27:16;11.00;;;8.67;;
24443;SDS011;13346;50.984;5.822;2024-01-07T06:29:43;12.60;;;8.27;;
24443;SDS011;13346;50.984;5.822;2024-01-07T06:32:10;7.87;;;7.13;;
24443;SDS011;13346;50.984;5.822;2024-01-07T06:34:37;15.37;;;10.07;;
24443;SDS011;13346;50.984;5.822;2024-01-07T06:37:04;14.27;;;10.37;;
24443;SDS011;13346;50.984;5.822;2024-01-07T06:39:33;16.90;;;12.13;;
24443;SDS011;13346;50.984;5.822;2024-01-07T06:42:00;16.47;;;11.30;;
24443;SDS011;13346;50.984;5.822;2024-01-07T06:44:28;12.13;;;10.80;;
24443;SDS011;13346;50.984;5.822;2024-01-07T06:46:56;8.33;;;7.37;;
24443;SDS011;13346;50.984;5.822;2024-01-07T06:49:23;8.90;;;6.53;;
24443;SDS011;13346;50.984;5.822;2024-01-07T06:51:49;9.57;;;6.53;;
24443;SDS011;13346;50.984;5.822;2024-01-07T06:54:16;7.27;;;6.57;;
24443;SDS011;13346;50.984;5.822;2024-01-07T06:56:43;13.97;;;9.27;;
24443;SDS011;13346;50.984;5.822;2024-01-07T06:59:11;8.87;;;6.17;;
24443;SDS011;13346;50.984;5.822;2024-01-07T07:01:39;7.73;;;5.27;;
24443;SDS011;13346;50.984;5.822;2024-01-07T07:04:06;12.23;;;9.00;;
24443;SDS011;13346;50.984;5.822;2024-01-07T07:06:33;13.57;;;11.00;;
24443;SDS011;13346;50.984;5.822;2024-01-07T07:09:00;8.53;;;7.63;;
24443;SDS011;13346;50.984;5.822;2024-01-07T07:11:28;7.13;;;6.40;;
24443;SDS011;13346;50.984;5.822;2024-01-07T07:13:55;5.53;;;4.83;;
24443;SDS011;13346;50.984;5.822;2024-01-07T07:16:22;6.83;;;6.23;;
24443;SDS011;13346;50.984;5.822;2024-01-07T07:18:52;6.77;;;6.07;;
24443;SDS011;13346;50.984;5.822;2024-01-07T07:21:19;7.50;;;6.43;;
24443;SDS011;13346;50.984;5.822;2024-01-07T07:23:46;6.63;;;4.87;;
24443;SDS011;13346;50.984;5.822;2024-01-07T07:26:13;7.27;;;6.53;;
24443;SDS011;13346;50.984;5.822;2024-01-07T07:28:40;15.73;;;10.97;;
24443;SDS011;13346;50.984;5.822;2024-01-07T07:31:07;9.40;;;5.33;;
24443;SDS011;13346;50.984;5.822;2024-01-07T07:33:38;7.83;;;5.80;;
24443;SDS011;13346;50.984;5.822;2024-01-07T07:36:07;8.63;;;7.83;;
24443;SDS011;13346;50.984;5.822;2024-01-07T07:38:34;7.97;;;7.20;;
24443;SDS011;13346;50.984;5.822;2024-01-07T07:41:02;6.77;;;6.23;;
24443;SDS011;13346;50.984;5.822;2024-01-07T07:43:29;8.33;;;7.10;;
24443;SDS011;13346;50.984;5.822;2024-01-07T07:45:56;8.33;;;7.53;;
24443;SDS011;13346;50.984;5.822;2024-01-07T07:48:24;5.37;;;4.93;;
24443;SDS011;13346;50.984;5.822;2024-01-07T07:50:53;6.90;;;6.20;;
24443;SDS011;13346;50.984;5.822;2024-01-07T07:53:20;7.83;;;6.30;;
24443;SDS011;13346;50.984;5.822;2024-01-07T07:55:47;14.10;;;7.20;;
24443;SDS011;13346;50.984;5.822;2024-01-07T07:58:15;8.83;;;7.83;;
24443;SDS011;13346;50.984;5.822;2024-01-07T08:00:42;12.10;;;8.73;;
24443;SDS011;13346;50.984;5.822;2024-01-07T08:03:10;8.70;;;7.90;;
24443;SDS011;13346;50.984;5.822;2024-01-07T08:05:37;11.20;;;8.27;;
24443;SDS011;13346;50.984;5.822;2024-01-07T08:08:06;5.03;;;4.57;;
24443;SDS011;13346;50.984;5.822;2024-01-07T08:10:34;6.63;;;6.03;;
24443;SDS011;13346;50.984;5.822;2024-01-07T08:13:02;7.90;;;6.97;;
24443;SDS011;13346;50.984;5.822;2024-01-07T08:15:29;6.00;;;5.40;;
24443;SDS011;13346;50.984;5.822;2024-01-07T08:17:56;8.37;;;7.57;;
24443;SDS011;13346;50.984;5.822;2024-01-07T08:20:23;11.30;;;9.03;;
24443;SDS011;13346;50.984;5.822;2024-01-07T08:22:50;7.07;;;6.37;;
24443;SDS011;13346;50.984;5.822;2024-01-07T08:25:17;7.10;;;6.27;;
24443;SDS011;13346;50.984;5.822;2024-01-07T08:27:46;8.87;;;6.57;;
24443;SDS011;13346;50.984;5.822;2024-01-07T08:30:13;7.10;;;5.27;;
24443;SDS011;13346;50.984;5.822;2024-01-07T08:32:41;13.00;;;10.10;;
24443;SDS011;13346;50.984;5.822;2024-01-07T08:35:08;7.60;;;6.87;;
24443;SDS011;13346;50.984;5.822;2024-01-07T08:37:35;4.83;;;4.60;;
24443;SDS011;13346;50.984;5.822;2024-01-07T08:40:02;8.70;;;7.90;;
24443;SDS011;13346;50.984;5.822;2024-01-07T08:42:30;6.87;;;5.20;;
24443;SDS011;13346;50.984;5.822;2024-01-07T08:44:59;8.17;;;7.37;;
24443;SDS011;13346;50.984;5.822;2024-01-07T08:47:29;8.80;;;7.77;;
24443;SDS011;13346;50.984;5.822;2024-01-07T08:49:56;10.53;;;8.23;;
24443;SDS011;13346;50.984;5.822;2024-01-07T08:52:23;5.93;;;5.53;;
24443;SDS011;13346;50.984;5.822;2024-01-07T08:54:51;7.60;;;6.40;;
24443;SDS011;13346;50.984;5.822;2024-01-07T08:57:18;8.83;;;6.27;;
24443;SDS011;13346;50.984;5.822;2024-01-07T08:59:45;12.70;;;10.63;;
24443;SDS011;13346;50.984;5.822;2024-01-07T09:02:14;5.97;;;4.93;;
24443;SDS011;13346;50.984;5.822;2024-01-07T09:04:41;8.13;;;7.43;;
24443;SDS011;13346;50.984;5.822;2024-01-07T09:07:08;14.77;;;12.67;;
24443;SDS011;13346;50.984;5.822;2024-01-07T09:09:35;6.80;;;6.20;;
24443;SDS011;13346;50.984;5.822;2024-01-07T09:12:03;16.97;;;10.43;;
24443;SDS011;13346;50.984;5.822;2024-01-07T09:14:30;22.30;;;11.63;;
24443;SDS011;13346;50.984;5.822;2024-01-07T09:16:58;15.43;;;11.83;;
24443;SDS011;13346;50.984;5.822;2024-01-07T09:19:26;12.53;;;8.33;;
24443;SDS011;13346;50.984;5.822;2024-01-07T09:21:54;6.33;;;5.83;;
24443;SDS011;13346;50.984;5.822;2024-01-07T09:24:21;13.33;;;11.87;;
24443;SDS011;13346;50.984;5.822;2024-01-07T09:26:48;15.43;;;12.13;;
24443;SDS011;13346;50.984;5.822;2024-01-07T09:29:16;10.67;;;8.23;;
24443;SDS011;13346;50.984;5.822;2024-01-07T09:31:43;8.40;;;6.30;;
24443;SDS011;13346;50.984;5.822;2024-01-07T09:34:11;12.20;;;7.03;;
24443;SDS011;13346;50.984;5.822;2024-01-07T09:36:39;11.63;;;9.27;;
24443;SDS011;13346;50.984;5.822;2024-01-07T09:39:06;8.03;;;6.27;;
24443;SDS011;13346;50.984;5.822;2024-01-07T09:41:34;11.13;;;7.30;;
24443;SDS011;13346;50.984;5.822;2024-01-07T09:44:02;10.30;;;7.73;;
24443;SDS011;13346;50.984;5.822;2024-01-07T09:46:31;9.17;;;8.17;;
24443;SDS011;13346;50.984;5.822;2024-01-07T09:49:00;7.83;;;7.00;;
24443;SDS011;13346;50.984;5.822;2024-01-07T09:51:29;7.00;;;6.33;;
24443;SDS011;13346;50.984;5.822;2024-01-07T09:54:02;5.90;;;5.40;;
24443;SDS011;13346;50.984;5.822;2024-01-07T09:56:33;10.20;;;9.20;;
24443;SDS011;13346;50.984;5.822;2024-01-07T09:59:05;5.90;;;5.47;;
24443;SDS011;13346;50.984;5.822;2024-01-07T10:01:33;9.50;;;6.07;;
24443;SDS011;13346;50.984;5.822;2024-01-07T10:04:01;5.20;;;4.80;;
24443;SDS011;13346;50.984;5.822;2024-01-07T10:06:29;16.63;;;10.30;;
24443;SDS011;13346;50.984;5.822;2024-01-07T10:08:56;9.00;;;8.10;;
24443;SDS011;13346;50.984;5.822;2024-01-07T10:11:24;8.53;;;7.67;;
24443;SDS011;13346;50.984;5.822;2024-01-07T10:13:51;8.37;;;6.37;;
24443;SDS011;13346;50.984;5.822;2024-01-07T10:16:20;8.40;;;7.20;;
24443;SDS011;13346;50.984;5.822;2024-01-07T10:18:47;15.63;;;12.17;;
24443;SDS011;13346;50.984;5.822;2024-01-07T10:21:14;7.00;;;6.50;;
24443;SDS011;13346;50.984;5.822;2024-01-07T10:23:41;8.00;;;6.57;;
24443;SDS011;13346;50.984;5.822;2024-01-07T10:26:09;5.27;;;4.83;;
24443;SDS011;13346;50.984;5.822;2024-01-07T10:28:37;8.50;;;6.83;;
24443;SDS011;13346;50.984;5.822;2024-01-07T10:31:05;10.07;;;8.73;;
24443;SDS011;13346;50.984;5.822;2024-01-07T10:33:32;8.23;;;6.50;;
24443;SDS011;13346;50.984;5.822;2024-01-07T10:36:01;11.37;;;10.20;;
24443;SDS011;13346;50.984;5.822;2024-01-07T10:38:30;9.53;;;8.57;;
24443;SDS011;13346;50.984;5.822;2024-01-07T10:40:59;5.53;;;4.97;;
24443;SDS011;13346;50.984;5.822;2024-01-07T10:43:28;6.30;;;5.60;;
24443;SDS011;13346;50.984;5.822;2024-01-07T10:45:59;6.47;;;5.90;;
24443;SDS011;13346;50.984;5.822;2024-01-07T10:48:30;8.33;;;7.30;;
24443;SDS011;13346;50.984;5.822;2024-01-07T10:50:59;10.80;;;8.90;;
24443;SDS011;13346;50.984;5.822;2024-01-07T10:53:25;5.57;;;5.13;;
24443;SDS011;13346;50.984;5.822;2024-01-07T10:56:00;5.43;;;4.90;;
24443;SDS011;13346;50.984;5.822;2024-01-07T10:58:30;5.67;;;5.07;;
24443;SDS011;13346;50.984;5.822;2024-01-07T11:01:01;8.53;;;7.83;;
24443;SDS011;13346;50.984;5.822;2024-01-07T11:03:33;10.17;;;8.20;;
24443;SDS011;13346;50.984;5.822;2024-01-07T11:06:07;5.63;;;5.00;;
24443;SDS011;13346;50.984;5.822;2024-01-07T11:08:41;6.87;;;6.10;;
24443;SDS011;13346;50.984;5.822;2024-01-07T11:11:14;12.63;;;8.47;;
24443;SDS011;13346;50.984;5.822;2024-01-07T11:13:46;17.33;;;12.17;;
24443;SDS011;13346;50.984;5.822;2024-01-07T11:16:14;10.27;;;9.27;;
24443;SDS011;13346;50.984;5.822;2024-01-07T11:19:08;10.73;;;6.70;;
24443;SDS011;13346;50.984;5.822;2024-01-07T11:21:35;9.13;;;7.90;;
24443;SDS011;13346;50.984;5.822;2024-01-07T11:24:03;8.73;;;7.90;;
24443;SDS011;13346;50.984;5.822;2024-01-07T11:26:30;11.17;;;8.83;;
24443;SDS011;13346;50.984;5.822;2024-01-07T11:28:58;8.70;;;7.60;;
24443;SDS011;13346;50.984;5.822;2024-01-07T11:37:04;11.33;;;8.63;;
24443;SDS011;13346;50.984;5.822;2024-01-07T11:39:36;11.17;;;9.00;;
24443;SDS011;13346;50.984;5.822;2024-01-07T11:42:03;10.53;;;9.50;;
24443;SDS011;13346;50.984;5.822;2024-01-07T11:44:33;11.53;;;9.10;;
24443;SDS011;13346;50.984;5.822;2024-01-07T11:47:03;11.30;;;7.70;;
24443;SDS011;13346;50.984;5.822;2024-01-07T11:49:31;9.33;;;7.37;;
24443;SDS011;13346;50.984;5.822;2024-01-07T11:51:59;11.67;;;8.40;;
24443;SDS011;13346;50.984;5.822;2024-01-07T11:54:26;16.67;;;9.27;;
24443;SDS011;13346;50.984;5.822;2024-01-07T11:56:54;10.63;;;8.80;;
24443;SDS011;13346;50.984;5.822;2024-01-07T11:59:22;9.50;;;6.63;;
24443;SDS011;13346;50.984;5.822;2024-01-07T12:01:50;8.47;;;7.67;;
24443;SDS011;13346;50.984;5.822;2024-01-07T12:04:19;7.43;;;6.83;;
24443;SDS011;13346;50.984;5.822;2024-01-07T12:06:47;7.00;;;6.30;;
24443;SDS011;13346;50.984;5.822;2024-01-07T12:09:14;7.23;;;5.73;;
24443;SDS011;13346;50.984;5.822;2024-01-07T12:11:42;9.83;;;8.93;;
24443;SDS011;13346;50.984;5.822;2024-01-07T12:14:11;16.27;;;13.37;;
24443;SDS011;13346;50.984;5.822;2024-01-07T12:16:38;11.03;;;9.80;;
24443;SDS011;13346;50.984;5.822;2024-01-07T12:19:05;13.17;;;8.47;;
24443;SDS011;13346;50.984;5.822;2024-01-07T12:21:35;7.23;;;6.20;;
24443;SDS011;13346;50.984;5.822;2024-01-07T12:24:03;7.83;;;7.13;;
24443;SDS011;13346;50.984;5.822;2024-01-07T12:26:30;7.80;;;7.20;;
24443;SDS011;13346;50.984;5.822;2024-01-07T12:28:58;7.73;;;6.97;;
24443;SDS011;13346;50.984;5.822;2024-01-07T12:31:29;7.73;;;7.03;;
24443;SDS011;13346;50.984;5.822;2024-01-07T12:33:56;7.87;;;6.97;;
24443;SDS011;13346;50.984;5.822;2024-01-07T12:36:24;8.93;;;8.03;;
24443;SDS011;13346;50.984;5.822;2024-01-07T12:38:53;4.80;;;3.47;;
24443;SDS011;13346;50.984;5.822;2024-01-07T12:41:20;12.83;;;10.73;;
24443;SDS011;13346;50.984;5.822;2024-01-07T12:43:47;5.30;;;4.77;;
24443;SDS011;13346;50.984;5.822;2024-01-07T12:46:15;7.00;;;6.10;;
24443;SDS011;13346;50.984;5.822;2024-01-07T12:48:42;6.10;;;5.60;;
24443;SDS011;13346;50.984;5.822;2024-01-07T12:51:09;6.53;;;4.20;;
24443;SDS011;13346;50.984;5.822;2024-01-07T12:53:36;5.53;;;5.07;;
24443;SDS011;13346;50.984;5.822;2024-01-07T12:56:05;4.53;;;4.13;;
24443;SDS011;13346;50.984;5.822;2024-01-07T12:58:33;7.10;;;6.33;;
24443;SDS011;13346;50.984;5.822;2024-01-07T13:01:00;6.97;;;6.37;;
24443;SDS011;13346;50.984;5.822;2024-01-07T13:03:27;5.77;;;5.07;;
24443;SDS011;13346;50.984;5.822;2024-01-07T13:05:55;6.53;;;5.57;;
24443;SDS011;13346;50.984;5.822;2024-01-07T13:08:22;7.60;;;5.30;;
24443;SDS011;13346;50.984;5.822;2024-01-07T13:10:51;4.70;;;3.97;;
24443;SDS011;13346;50.984;5.822;2024-01-07T13:13:20;3.33;;;3.03;;
24443;SDS011;13346;50.984;5.822;2024-01-07T13:15:47;3.33;;;3.07;;
24443;SDS011;13346;50.984;5.822;2024-01-07T13:18:16;7.33;;;5.13;;
24443;SDS011;13346;50.984;5.822;2024-01-07T13:20:43;7.43;;;5.87;;
24443;SDS011;13346;50.984;5.822;2024-01-07T13:23:10;5.03;;;4.63;;
24443;SDS011;13346;50.984;5.822;2024-01-07T13:25:37;5.10;;;4.70;;
24443;SDS011;13346;50.984;5.822;2024-01-07T13:28:04;7.03;;;5.43;;
24443;SDS011;13346;50.984;5.822;2024-01-07T13:30:37;6.20;;;5.63;;
24443;SDS011;13346;50.984;5.822;2024-01-07T13:33:05;5.03;;;4.53;;
24443;SDS011;13346;50.984;5.822;2024-01-07T13:35:33;4.90;;;4.50;;
24443;SDS011;13346;50.984;5.822;2024-01-07T13:38:00;3.20;;;3.00;;
24443;SDS011;13346;50.984;5.822;2024-01-07T13:40:28;5.30;;;4.80;;
24443;SDS011;13346;50.984;5.822;2024-01-07T13:42:55;4.00;;;3.70;;
24443;SDS011;13346;50.984;5.822;2024-01-07T13:45:22;5.07;;;4.67;;
24443;SDS011;13346;50.984;5.822;2024-01-07T13:47:51;4.60;;;4.30;;
24443;SDS011;13346;50.984;5.822;2024-01-07T13:50:18;4.27;;;3.97;;
24443;SDS011;13346;50.984;5.822;2024-01-07T13:52:45;3.10;;;2.87;;
24443;SDS011;13346;50.984;5.822;2024-01-07T13:55:13;4.10;;;3.80;;
24443;SDS011;13346;50.984;5.822;2024-01-07T13:57:40;5.37;;;4.90;;
24443;SDS011;13346;50.984;5.822;2024-01-07T14:00:08;5.03;;;4.37;;
24443;SDS011;13346;50.984;5.822;2024-01-07T14:02:38;5.83;;;5.33;;
24443;SDS011;13346;50.984;5.822;2024-01-07T14:05:07;6.87;;;6.27;;
24443;SDS011;13346;50.984;5.822;2024-01-07T14:07:35;5.77;;;4.90;;
24443;SDS011;13346;50.984;5.822;2024-01-07T14:10:02;5.17;;;4.67;;
24443;SDS011;13346;50.984;5.822;2024-01-07T14:12:31;3.97;;;3.73;;
24443;SDS011;13346;50.984;5.822;2024-01-07T14:14:58;3.67;;;3.47;;
24443;SDS011;13346;50.984;5.822;2024-01-07T14:17:25;3.33;;;2.43;;
24443;SDS011;13346;50.984;5.822;2024-01-07T14:19:52;3.07;;;2.87;;
24443;SDS011;13346;50.984;5.822;2024-01-07T14:22:21;2.17;;;2.03;;
24443;SDS011;13346;50.984;5.822;2024-01-07T14:24:48;5.63;;;3.47;;
24443;SDS011;13346;50.984;5.822;2024-01-07T14:27:16;2.83;;;2.63;;
24443;SDS011;13346;50.984;5.822;2024-01-07T14:29:43;4.83;;;4.43;;
24443;SDS011;13346;50.984;5.822;2024-01-07T14:32:11;3.17;;;3.00;;
24443;SDS011;13346;50.984;5.822;2024-01-07T14:34:38;2.90;;;2.70;;
24443;SDS011;13346;50.984;5.822;2024-01-07T14:37:06;2.83;;;2.67;;
24443;SDS011;13346;50.984;5.822;2024-01-07T14:39:36;3.30;;;3.10;;
24443;SDS011;13346;50.984;5.822;2024-01-07T14:42:04;2.73;;;2.63;;
24443;SDS011;13346;50.984;5.822;2024-01-07T14:44:31;8.63;;;3.67;;